createdAt,value
2023-02-12T00:03:00.278Z,22.30
2023-02-12T00:08:10.429Z,22.30
2023-02-12T00:13:16.780Z,22.40
2023-02-12T00:18:23.156Z,22.40
2023-02-12T00:23:29.695Z,22.50
2023-02-12T00:28:36.677Z,22.60
2023-02-12T00:33:43.413Z,22.70
2023-02-12T00:38:51.091Z,22.70
2023-02-12T00:43:56.862Z,22.80
2023-02-12T00:49:03.539Z,22.90
2023-02-12T00:54:09.302Z,23.00
2023-02-12T00:59:15.397Z,23.10
2023-02-12T01:04:21.093Z,23.10
2023-02-12T01:09:27.076Z,23.20
2023-02-12T01:14:33.025Z,23.30
2023-02-12T01:19:40.015Z,23.40
2023-02-12T01:24:46.144Z,23.50
2023-02-12T01:29:51.783Z,23.60
2023-02-12T01:34:59.689Z,23.80
2023-02-12T01:40:07.673Z,23.90
2023-02-12T01:45:20.340Z,23.90
2023-02-12T01:50:27.734Z,24.10
2023-02-12T01:55:34.385Z,24.40
2023-02-12T02:00:43.047Z,24.60
2023-02-12T02:06:03.143Z,24.40
2023-02-12T02:11:29.358Z,24.50
2023-02-12T02:16:39.824Z,24.60
2023-02-12T02:22:17.932Z,24.90
2023-02-12T02:27:34.438Z,25.00
2023-02-12T02:39:49.536Z,25.10
2023-02-12T02:45:22.509Z,25.30
2023-02-12T02:50:38.101Z,25.40
2023-02-12T02:56:04.403Z,25.70
2023-02-12T03:01:32.940Z,26.00
2023-02-12T03:06:50.586Z,26.40
2023-02-12T03:20:01.951Z,26.90
2023-02-12T03:25:41.314Z,27.10
2023-02-12T03:31:03.573Z,27.20
2023-02-12T03:36:26.771Z,27.50
2023-02-12T03:41:46.141Z,27.50
2023-02-12T03:47:17.857Z,27.30
2023-02-12T03:52:23.926Z,27.70
2023-02-12T03:57:32.765Z,28.10
2023-02-12T04:02:38.923Z,28.20
2023-02-12T04:07:44.051Z,28.30
2023-02-12T04:13:06.681Z,28.10
2023-02-12T04:18:33.449Z,28.40
2023-02-12T04:23:48.556Z,28.90
2023-02-12T04:29:11.881Z,29.00
2023-02-12T04:35:01.061Z,29.70
2023-02-12T04:40:10.037Z,29.70
2023-02-12T04:45:19.659Z,29.70
2023-02-12T04:50:27.026Z,31.60
2023-02-12T04:55:32.360Z,32.80
2023-02-12T05:00:43.244Z,33.00
2023-02-12T05:06:07.738Z,33.40
2023-02-12T05:11:16.521Z,34.00
2023-02-12T05:16:26.254Z,32.80
2023-02-12T05:21:31.483Z,32.60
2023-02-12T05:26:38.366Z,32.40
2023-02-12T05:31:44.631Z,32.40
2023-02-12T05:36:50.220Z,32.20
2023-02-12T05:41:55.546Z,31.70
2023-02-12T05:47:00.614Z,31.20
2023-02-12T05:52:06.283Z,30.50
2023-02-12T05:57:11.646Z,31.10
2023-02-12T06:02:18.148Z,33.80
2023-02-12T06:07:24.589Z,35.90
2023-02-12T06:12:53.101Z,37.00
2023-02-12T06:17:58.568Z,37.70
2023-02-12T06:23:07.088Z,38.20
2023-02-12T06:35:39.672Z,38.20
2023-02-12T06:40:48.580Z,38.90
2023-02-12T06:45:54.576Z,38.60
2023-02-12T06:51:33.997Z,36.20
2023-02-12T07:03:22.634Z,34.50
2023-02-12T07:09:39.630Z,36.90
2023-02-12T07:14:50.955Z,36.10
2023-02-12T07:19:59.068Z,32.90
2023-02-12T07:25:04.174Z,33.30
2023-02-12T07:30:10.177Z,32.40
2023-02-12T07:35:15.544Z,31.10
2023-02-12T07:40:21.113Z,31.80
2023-02-12T07:45:32.704Z,33.60
2023-02-12T07:50:40.108Z,35.20
2023-02-12T08:02:56.070Z,33.50
2023-02-12T08:08:01.155Z,34.40
2023-02-12T08:13:09.640Z,34.10
2023-02-12T08:18:15.130Z,32.80
2023-02-12T08:23:21.486Z,31.50
2023-02-12T08:28:51.394Z,30.50
2023-02-12T08:33:57.593Z,29.40
2023-02-12T08:39:06.042Z,28.80
2023-02-12T08:44:14.439Z,28.90
2023-02-12T08:49:26.077Z,28.90
2023-02-12T08:54:33.791Z,28.90
2023-02-12T08:59:39.186Z,28.90
2023-02-12T09:04:44.650Z,28.50
2023-02-12T09:09:50.145Z,27.90
2023-02-12T09:14:55.639Z,27.50
2023-02-12T09:20:02.828Z,27.30
2023-02-12T09:25:09.131Z,27.20
2023-02-12T09:30:15.801Z,27.10
2023-02-12T09:35:27.325Z,26.90
2023-02-12T09:40:42.272Z,26.70
2023-02-12T09:46:16.996Z,26.40
2023-02-12T09:51:23.149Z,26.30
2023-02-12T09:57:08.648Z,26.00
2023-02-12T10:02:18.569Z,25.70
2023-02-12T10:07:33.549Z,25.60
2023-02-12T10:13:01.809Z,25.50
2023-02-12T10:18:25.810Z,25.40
2023-02-12T10:23:48.422Z,25.20
2023-02-12T10:28:54.792Z,25.10
2023-02-12T10:34:04.919Z,25.00
2023-02-12T10:39:16.004Z,24.90
2023-02-12T10:44:23.217Z,24.90
2023-02-12T10:49:28.738Z,24.70
2023-02-12T10:54:45.972Z,24.70
2023-02-12T10:59:54.701Z,24.60
2023-02-12T11:05:02.776Z,24.50
2023-02-12T11:10:27.682Z,24.50
2023-02-12T11:15:48.455Z,24.50
2023-02-12T11:21:00.561Z,24.40
2023-02-12T11:26:36.967Z,24.40
2023-02-12T11:31:43.068Z,24.40
2023-02-12T11:36:54.729Z,24.40
2023-02-12T11:42:06.216Z,24.30
2023-02-12T11:47:19.076Z,24.30
2023-02-12T11:52:28.738Z,24.30
2023-02-12T11:57:50.232Z,24.20
2023-02-12T12:03:05.273Z,24.10
2023-02-12T12:08:38.553Z,24.10
2023-02-12T12:14:15.241Z,24.10
2023-02-12T12:20:21.381Z,24.00
2023-02-12T12:25:55.095Z,24.00
2023-02-12T12:31:29.534Z,24.00
2023-02-12T12:37:29.407Z,24.00
2023-02-12T12:43:03.716Z,24.00
2023-02-12T12:49:00.491Z,23.90
2023-02-12T12:54:22.962Z,24.00
2023-02-12T12:59:53.965Z,24.10
2023-02-12T13:05:19.530Z,24.10
2023-02-12T13:17:19.130Z,23.90
2023-02-12T13:22:34.095Z,23.80
2023-02-12T13:33:24.132Z,23.80
2023-02-12T13:39:41.835Z,23.80
2023-02-12T13:45:36.613Z,23.80
2023-02-12T13:51:19.891Z,23.80
2023-02-12T14:03:19.379Z,23.80
2023-02-12T14:08:59.911Z,23.70
2023-02-12T14:14:51.518Z,23.70
2023-02-12T14:27:52.461Z,23.70
2023-02-12T14:33:22.944Z,23.70
2023-02-12T14:38:46.874Z,23.70
2023-02-12T14:45:05.561Z,23.60
2023-02-12T14:51:29.406Z,23.70
2023-02-12T14:56:46.043Z,23.60
2023-02-12T15:07:52.285Z,23.50
2023-02-12T15:13:39.073Z,23.50
2023-02-12T15:24:29.688Z,23.60
2023-02-12T15:29:46.788Z,23.70
2023-02-12T15:34:57.565Z,23.60
2023-02-12T15:40:11.335Z,23.60
2023-02-12T15:45:53.842Z,23.50
2023-02-12T15:51:30.174Z,23.50
2023-02-12T15:56:37.773Z,23.50
2023-02-12T16:01:56.667Z,23.40
2023-02-12T16:07:03.863Z,23.40
2023-02-12T16:12:15.440Z,23.50
2023-02-12T16:17:36.886Z,23.40
2023-02-12T16:22:45.270Z,23.50
2023-02-12T16:28:19.918Z,23.40
2023-02-12T16:33:39.330Z,23.40
2023-02-12T16:38:53.893Z,23.30
2023-02-12T16:44:08.696Z,23.30
2023-02-12T16:49:22.672Z,23.30
2023-02-12T16:54:38.380Z,23.30
2023-02-12T16:59:47.005Z,23.40
2023-02-12T17:04:55.060Z,23.40
2023-02-12T17:10:02.936Z,23.30
2023-02-12T17:15:09.324Z,23.40
2023-02-12T17:20:17.355Z,23.30
2023-02-12T17:25:23.532Z,23.30
2023-02-12T17:30:30.459Z,23.30
2023-02-12T17:35:36.611Z,23.30
2023-02-12T17:40:42.574Z,23.30
2023-02-12T17:45:48.824Z,23.30
2023-02-12T17:51:01.964Z,23.30
2023-02-12T17:56:11.751Z,23.30
2023-02-12T18:01:20.914Z,23.30
2023-02-12T18:06:33.135Z,23.20
2023-02-12T18:11:43.972Z,23.20
2023-02-12T18:16:50.198Z,23.20
2023-02-12T18:21:56.929Z,23.20
2023-02-12T18:27:03.859Z,23.20
2023-02-12T18:32:16.008Z,23.20
2023-02-12T18:37:22.777Z,23.20
2023-02-12T18:42:30.080Z,23.20
2023-02-12T18:47:36.284Z,23.20
2023-02-12T18:52:58.602Z,23.20
2023-02-12T18:58:04.264Z,23.10
2023-02-12T19:03:09.894Z,23.10
2023-02-12T19:08:16.102Z,23.10
2023-02-12T19:13:21.983Z,23.10
2023-02-12T19:18:27.943Z,23.10
2023-02-12T19:23:33.256Z,23.00
2023-02-12T19:28:42.735Z,23.00
2023-02-12T19:33:50.051Z,23.10
2023-02-12T19:38:56.219Z,23.00
2023-02-12T19:44:04.351Z,23.00
2023-02-12T19:49:14.402Z,23.00
2023-02-12T19:54:21.908Z,23.00
2023-02-12T19:59:28.665Z,23.00
2023-02-12T20:04:35.633Z,22.90
2023-02-12T20:09:41.875Z,23.00
2023-02-12T20:15:04.371Z,23.00
2023-02-12T20:20:11.961Z,23.00
2023-02-12T20:25:17.726Z,23.00
2023-02-12T20:30:24.136Z,23.00
2023-02-12T20:35:31.165Z,22.90
2023-02-12T20:40:36.876Z,22.90
2023-02-12T20:45:43.045Z,23.00
2023-02-12T20:50:49.079Z,23.00
2023-02-12T20:55:54.134Z,23.00
2023-02-12T21:01:22.944Z,22.90
2023-02-12T21:06:28.947Z,22.70
2023-02-12T21:11:34.594Z,22.90
2023-02-12T21:16:48.931Z,22.80
2023-02-12T21:21:55.333Z,22.80
2023-02-12T21:27:01.380Z,22.80
2023-02-12T21:32:06.597Z,22.80
2023-02-12T21:37:12.484Z,22.70
2023-02-12T21:42:18.394Z,22.80
2023-02-12T21:47:24.324Z,22.80
2023-02-12T21:52:30.533Z,22.90
2023-02-12T21:57:36.263Z,22.90
2023-02-12T22:02:42.313Z,22.90
2023-02-12T22:07:52.554Z,22.90
2023-02-12T22:12:59.059Z,22.80
2023-02-12T22:18:05.320Z,22.90
2023-02-12T22:23:10.656Z,22.90
2023-02-12T22:28:16.837Z,22.80
2023-02-12T22:33:24.692Z,22.70
2023-02-12T22:38:30.951Z,22.80
2023-02-12T22:43:39.276Z,22.70
2023-02-12T22:48:45.798Z,22.70
2023-02-12T22:53:52.215Z,22.70
2023-02-12T22:59:00.324Z,22.70
2023-02-12T23:04:06.519Z,22.70
2023-02-12T23:09:15.981Z,22.70
2023-02-12T23:14:22.771Z,22.70
2023-02-12T23:19:28.491Z,22.70
2023-02-12T23:24:34.728Z,22.70
2023-02-12T23:29:41.824Z,22.70
2023-02-12T23:34:48.206Z,22.70
2023-02-12T23:40:11.481Z,22.70
2023-02-12T23:45:33.295Z,22.80
2023-02-12T23:50:39.853Z,22.80
2023-02-12T23:55:46.036Z,22.80
